sensor_id;sensor_type;location;lat;lon;timestamp;temperature;humidity
81321;DHT22;70785;52.570;5.638;2023-12-04T00:01:44;0.40;77.10
81321;DHT22;70785;52.570;5.638;2023-12-04T00:04:11;0.40;77.00
81321;DHT22;70785;52.570;5.638;2023-12-04T00:06:37;0.50;77.00
81321;DHT22;70785;52.570;5.638;2023-12-04T00:09:03;0.40;77.00
81321;DHT22;70785;52.570;5.638;2023-12-04T00:11:30;0.40;77.00
81321;DHT22;70785;52.570;5.638;2023-12-04T00:13:56;0.40;77.00
81321;DHT22;70785;52.570;5.638;2023-12-04T00:16:22;0.40;77.10
81321;DHT22;70785;52.570;5.638;2023-12-04T00:18:48;0.40;77.00
81321;DHT22;70785;52.570;5.638;2023-12-04T00:21:14;0.40;77.10
81321;DHT22;70785;52.570;5.638;2023-12-04T00:23:40;0.40;77.10
81321;DHT22;70785;52.570;5.638;2023-12-04T00:26:07;0.40;77.10
81321;DHT22;70785;52.570;5.638;2023-12-04T00:28:36;0.40;77.00
81321;DHT22;70785;52.570;5.638;2023-12-04T00:31:02;0.50;77.00
81321;DHT22;70785;52.570;5.638;2023-12-04T00:33:28;0.40;77.00
81321;DHT22;70785;52.570;5.638;2023-12-04T00:35:54;0.50;77.00
81321;DHT22;70785;52.570;5.638;2023-12-04T00:38:20;0.50;76.90
81321;DHT22;70785;52.570;5.638;2023-12-04T00:40:46;0.50;77.00
81321;DHT22;70785;52.570;5.638;2023-12-04T00:43:12;0.50;77.00
81321;DHT22;70785;52.570;5.638;2023-12-04T00:45:38;0.50;76.90
81321;DHT22;70785;52.570;5.638;2023-12-04T00:48:05;0.50;77.00
81321;DHT22;70785;52.570;5.638;2023-12-04T00:50:31;0.50;76.90
81321;DHT22;70785;52.570;5.638;2023-12-04T00:52:57;0.50;76.90
81321;DHT22;70785;52.570;5.638;2023-12-04T00:55:24;0.50;76.90
81321;DHT22;70785;52.570;5.638;2023-12-04T00:57:50;0.50;76.90
81321;DHT22;70785;52.570;5.638;2023-12-04T01:00:16;0.50;77.00
81321;DHT22;70785;52.570;5.638;2023-12-04T01:02:42;0.50;76.90
81321;DHT22;70785;52.570;5.638;2023-12-04T01:05:08;0.50;76.90
81321;DHT22;70785;52.570;5.638;2023-12-04T01:07:35;0.50;76.90
81321;DHT22;70785;52.570;5.638;2023-12-04T01:10:01;0.50;76.90
81321;DHT22;70785;52.570;5.638;2023-12-04T01:12:27;0.50;77.00
81321;DHT22;70785;52.570;5.638;2023-12-04T01:14:53;0.50;77.00
81321;DHT22;70785;52.570;5.638;2023-12-04T01:17:19;0.50;77.00
81321;DHT22;70785;52.570;5.638;2023-12-04T01:19:45;0.50;77.00
81321;DHT22;70785;52.570;5.638;2023-12-04T01:22:11;0.50;76.90
81321;DHT22;70785;52.570;5.638;2023-12-04T01:24:37;0.50;76.90
81321;DHT22;70785;52.570;5.638;2023-12-04T01:27:04;0.50;77.00
81321;DHT22;70785;52.570;5.638;2023-12-04T01:29:30;0.50;77.00
81321;DHT22;70785;52.570;5.638;2023-12-04T01:31:57;0.40;77.10
81321;DHT22;70785;52.570;5.638;2023-12-04T01:34:23;0.40;77.00
81321;DHT22;70785;52.570;5.638;2023-12-04T01:36:50;0.40;77.00
81321;DHT22;70785;52.570;5.638;2023-12-04T01:39:16;0.40;77.10
81321;DHT22;70785;52.570;5.638;2023-12-04T01:41:42;0.40;77.00
81321;DHT22;70785;52.570;5.638;2023-12-04T01:44:08;0.40;77.00
81321;DHT22;70785;52.570;5.638;2023-12-04T01:46:34;0.40;77.00
81321;DHT22;70785;52.570;5.638;2023-12-04T01:49:01;0.40;77.00
81321;DHT22;70785;52.570;5.638;2023-12-04T01:51:29;0.40;77.10
81321;DHT22;70785;52.570;5.638;2023-12-04T01:53:58;0.40;77.10
81321;DHT22;70785;52.570;5.638;2023-12-04T01:56:25;0.40;77.10
81321;DHT22;70785;52.570;5.638;2023-12-04T01:58:51;0.40;77.10
81321;DHT22;70785;52.570;5.638;2023-12-04T02:01:18;0.40;77.10
81321;DHT22;70785;52.570;5.638;2023-12-04T02:03:45;0.40;77.10
81321;DHT22;70785;52.570;5.638;2023-12-04T02:06:12;0.50;77.00
81321;DHT22;70785;52.570;5.638;2023-12-04T02:08:40;0.50;77.00
81321;DHT22;70785;52.570;5.638;2023-12-04T02:11:06;0.50;77.00
81321;DHT22;70785;52.570;5.638;2023-12-04T02:13:33;0.50;76.90
81321;DHT22;70785;52.570;5.638;2023-12-04T02:16:03;0.50;76.90
81321;DHT22;70785;52.570;5.638;2023-12-04T02:18:33;0.50;76.90
81321;DHT22;70785;52.570;5.638;2023-12-04T02:21:00;0.50;76.90
81321;DHT22;70785;52.570;5.638;2023-12-04T02:23:27;0.50;76.90
81321;DHT22;70785;52.570;5.638;2023-12-04T02:26:03;0.50;76.90
81321;DHT22;70785;52.570;5.638;2023-12-04T02:28:32;0.50;76.90
81321;DHT22;70785;52.570;5.638;2023-12-04T02:30:59;0.50;76.90
81321;DHT22;70785;52.570;5.638;2023-12-04T02:33:27;0.50;76.80
81321;DHT22;70785;52.570;5.638;2023-12-04T02:35:55;0.50;76.80
81321;DHT22;70785;52.570;5.638;2023-12-04T02:38:23;0.50;76.80
81321;DHT22;70785;52.570;5.638;2023-12-04T02:40:50;0.50;76.80
81321;DHT22;70785;52.570;5.638;2023-12-04T02:43:16;0.50;76.70
81321;DHT22;70785;52.570;5.638;2023-12-04T02:45:42;0.40;76.80
81321;DHT22;70785;52.570;5.638;2023-12-04T02:48:08;0.50;76.90
81321;DHT22;70785;52.570;5.638;2023-12-04T02:50:36;0.50;76.80
81321;DHT22;70785;52.570;5.638;2023-12-04T02:53:02;0.50;76.80
81321;DHT22;70785;52.570;5.638;2023-12-04T02:55:28;0.50;76.80
81321;DHT22;70785;52.570;5.638;2023-12-04T02:57:54;0.50;76.80
81321;DHT22;70785;52.570;5.638;2023-12-04T03:00:20;0.50;76.80
81321;DHT22;70785;52.570;5.638;2023-12-04T03:02:46;0.50;76.70
81321;DHT22;70785;52.570;5.638;2023-12-04T03:05:13;0.50;76.70
81321;DHT22;70785;52.570;5.638;2023-12-04T03:07:39;0.60;76.70
81321;DHT22;70785;52.570;5.638;2023-12-04T03:10:05;0.60;76.70
81321;DHT22;70785;52.570;5.638;2023-12-04T03:12:31;0.60;76.70
81321;DHT22;70785;52.570;5.638;2023-12-04T03:14:57;0.60;76.60
81321;DHT22;70785;52.570;5.638;2023-12-04T03:17:24;0.60;76.60
81321;DHT22;70785;52.570;5.638;2023-12-04T03:19:51;0.60;76.60
81321;DHT22;70785;52.570;5.638;2023-12-04T03:22:17;0.60;76.50
81321;DHT22;70785;52.570;5.638;2023-12-04T03:24:43;0.60;76.50
81321;DHT22;70785;52.570;5.638;2023-12-04T03:27:09;0.60;76.60
81321;DHT22;70785;52.570;5.638;2023-12-04T03:29:35;0.60;76.50
81321;DHT22;70785;52.570;5.638;2023-12-04T03:32:02;0.60;76.60
81321;DHT22;70785;52.570;5.638;2023-12-04T03:34:28;0.50;76.50
81321;DHT22;70785;52.570;5.638;2023-12-04T03:36:54;0.50;76.50
81321;DHT22;70785;52.570;5.638;2023-12-04T03:39:20;0.50;76.50
81321;DHT22;70785;52.570;5.638;2023-12-04T03:41:47;0.50;76.50
81321;DHT22;70785;52.570;5.638;2023-12-04T03:44:13;0.50;76.50
81321;DHT22;70785;52.570;5.638;2023-12-04T03:46:39;0.50;76.60
81321;DHT22;70785;52.570;5.638;2023-12-04T03:49:05;0.50;76.50
81321;DHT22;70785;52.570;5.638;2023-12-04T03:51:31;0.50;76.50
81321;DHT22;70785;52.570;5.638;2023-12-04T03:53:57;0.50;76.50
81321;DHT22;70785;52.570;5.638;2023-12-04T03:56:23;0.50;76.50
81321;DHT22;70785;52.570;5.638;2023-12-04T03:58:49;0.50;76.50
81321;DHT22;70785;52.570;5.638;2023-12-04T04:01:15;0.50;76.40
81321;DHT22;70785;52.570;5.638;2023-12-04T04:03:41;0.60;76.40
81321;DHT22;70785;52.570;5.638;2023-12-04T04:06:09;0.50;76.40
81321;DHT22;70785;52.570;5.638;2023-12-04T04:08:35;0.50;76.40
81321;DHT22;70785;52.570;5.638;2023-12-04T04:11:01;0.50;76.30
81321;DHT22;70785;52.570;5.638;2023-12-04T04:13:27;0.50;76.30
81321;DHT22;70785;52.570;5.638;2023-12-04T04:15:53;0.50;76.30
81321;DHT22;70785;52.570;5.638;2023-12-04T04:18:20;0.50;76.40
81321;DHT22;70785;52.570;5.638;2023-12-04T04:20:46;0.50;76.30
81321;DHT22;70785;52.570;5.638;2023-12-04T04:23:12;0.50;76.40
81321;DHT22;70785;52.570;5.638;2023-12-04T04:25:38;0.50;76.30
81321;DHT22;70785;52.570;5.638;2023-12-04T04:28:04;0.50;76.30
81321;DHT22;70785;52.570;5.638;2023-12-04T04:30:30;0.50;76.20
81321;DHT22;70785;52.570;5.638;2023-12-04T04:32:56;0.50;76.20
81321;DHT22;70785;52.570;5.638;2023-12-04T04:35:22;0.50;76.20
81321;DHT22;70785;52.570;5.638;2023-12-04T04:37:48;0.50;76.20
81321;DHT22;70785;52.570;5.638;2023-12-04T04:40:14;0.50;76.20
81321;DHT22;70785;52.570;5.638;2023-12-04T04:42:40;0.50;76.10
81321;DHT22;70785;52.570;5.638;2023-12-04T04:45:07;0.50;76.20
81321;DHT22;70785;52.570;5.638;2023-12-04T04:47:33;0.40;76.10
81321;DHT22;70785;52.570;5.638;2023-12-04T04:49:59;0.40;76.20
81321;DHT22;70785;52.570;5.638;2023-12-04T04:52:25;0.40;76.10
81321;DHT22;70785;52.570;5.638;2023-12-04T04:54:51;0.40;76.10
81321;DHT22;70785;52.570;5.638;2023-12-04T04:57:17;0.40;76.10
81321;DHT22;70785;52.570;5.638;2023-12-04T04:59:43;0.40;76.10
81321;DHT22;70785;52.570;5.638;2023-12-04T05:02:09;0.40;76.00
81321;DHT22;70785;52.570;5.638;2023-12-04T05:04:36;0.40;76.00
81321;DHT22;70785;52.570;5.638;2023-12-04T05:07:02;0.40;76.00
81321;DHT22;70785;52.570;5.638;2023-12-04T05:09:31;0.40;76.00
81321;DHT22;70785;52.570;5.638;2023-12-04T05:11:57;0.30;76.00
81321;DHT22;70785;52.570;5.638;2023-12-04T05:14:23;0.30;76.00
81321;DHT22;70785;52.570;5.638;2023-12-04T05:16:49;0.30;76.00
81321;DHT22;70785;52.570;5.638;2023-12-04T05:19:15;0.30;76.00
81321;DHT22;70785;52.570;5.638;2023-12-04T05:21:41;0.30;76.00
81321;DHT22;70785;52.570;5.638;2023-12-04T05:24:07;0.30;75.90
81321;DHT22;70785;52.570;5.638;2023-12-04T05:26:33;0.30;76.00
81321;DHT22;70785;52.570;5.638;2023-12-04T05:29:00;0.30;75.90
81321;DHT22;70785;52.570;5.638;2023-12-04T05:31:26;0.30;75.90
81321;DHT22;70785;52.570;5.638;2023-12-04T05:33:52;0.30;75.80
81321;DHT22;70785;52.570;5.638;2023-12-04T05:36:18;0.30;75.90
81321;DHT22;70785;52.570;5.638;2023-12-04T05:38:44;0.30;75.80
81321;DHT22;70785;52.570;5.638;2023-12-04T05:41:10;0.30;75.80
81321;DHT22;70785;52.570;5.638;2023-12-04T05:43:37;0.20;75.80
81321;DHT22;70785;52.570;5.638;2023-12-04T05:46:03;0.20;75.90
81321;DHT22;70785;52.570;5.638;2023-12-04T05:48:29;0.20;75.90
81321;DHT22;70785;52.570;5.638;2023-12-04T05:50:55;0.20;75.90
81321;DHT22;70785;52.570;5.638;2023-12-04T05:53:21;0.20;75.90
81321;DHT22;70785;52.570;5.638;2023-12-04T05:55:48;0.20;75.90
81321;DHT22;70785;52.570;5.638;2023-12-04T05:58:15;0.20;75.90
81321;DHT22;70785;52.570;5.638;2023-12-04T06:00:41;0.20;75.90
81321;DHT22;70785;52.570;5.638;2023-12-04T06:03:08;0.30;75.90
81321;DHT22;70785;52.570;5.638;2023-12-04T06:05:34;0.30;75.80
81321;DHT22;70785;52.570;5.638;2023-12-04T06:08:00;0.30;75.70
81321;DHT22;70785;52.570;5.638;2023-12-04T06:10:26;0.30;75.70
81321;DHT22;70785;52.570;5.638;2023-12-04T06:12:52;0.30;75.70
81321;DHT22;70785;52.570;5.638;2023-12-04T06:15:18;0.40;75.60
81321;DHT22;70785;52.570;5.638;2023-12-04T06:17:44;0.40;75.70
81321;DHT22;70785;52.570;5.638;2023-12-04T06:20:11;0.40;75.60
81321;DHT22;70785;52.570;5.638;2023-12-04T06:22:37;0.40;75.50
81321;DHT22;70785;52.570;5.638;2023-12-04T06:25:04;0.40;75.50
81321;DHT22;70785;52.570;5.638;2023-12-04T06:27:30;0.40;75.50
81321;DHT22;70785;52.570;5.638;2023-12-04T06:29:57;0.40;75.50
81321;DHT22;70785;52.570;5.638;2023-12-04T06:32:24;0.40;75.50
81321;DHT22;70785;52.570;5.638;2023-12-04T06:34:50;0.50;75.40
81321;DHT22;70785;52.570;5.638;2023-12-04T06:37:17;0.40;75.40
81321;DHT22;70785;52.570;5.638;2023-12-04T06:39:45;0.50;75.40
81321;DHT22;70785;52.570;5.638;2023-12-04T06:42:11;0.50;75.30
81321;DHT22;70785;52.570;5.638;2023-12-04T06:44:38;0.50;75.30
81321;DHT22;70785;52.570;5.638;2023-12-04T06:47:04;0.50;75.30
81321;DHT22;70785;52.570;5.638;2023-12-04T06:49:33;0.50;75.20
81321;DHT22;70785;52.570;5.638;2023-12-04T06:52:00;0.50;75.10
81321;DHT22;70785;52.570;5.638;2023-12-04T06:54:27;0.50;75.00
81321;DHT22;70785;52.570;5.638;2023-12-04T06:56:53;0.50;75.10
81321;DHT22;70785;52.570;5.638;2023-12-04T06:59:19;0.50;75.10
81321;DHT22;70785;52.570;5.638;2023-12-04T07:01:46;0.50;75.10
81321;DHT22;70785;52.570;5.638;2023-12-04T07:04:12;0.60;75.00
81321;DHT22;70785;52.570;5.638;2023-12-04T07:06:39;0.60;75.00
81321;DHT22;70785;52.570;5.638;2023-12-04T07:09:06;0.60;74.90
81321;DHT22;70785;52.570;5.638;2023-12-04T07:11:34;0.60;74.80
81321;DHT22;70785;52.570;5.638;2023-12-04T07:14:00;0.60;74.70
81321;DHT22;70785;52.570;5.638;2023-12-04T07:16:26;0.60;74.70
81321;DHT22;70785;52.570;5.638;2023-12-04T07:18:53;0.60;74.70
81321;DHT22;70785;52.570;5.638;2023-12-04T07:21:19;0.60;74.60
81321;DHT22;70785;52.570;5.638;2023-12-04T07:23:45;0.60;74.60
81321;DHT22;70785;52.570;5.638;2023-12-04T07:26:11;0.60;74.60
81321;DHT22;70785;52.570;5.638;2023-12-04T07:28:37;0.50;74.50
81321;DHT22;70785;52.570;5.638;2023-12-04T07:31:03;0.50;74.50
81321;DHT22;70785;52.570;5.638;2023-12-04T07:33:29;0.50;74.50
81321;DHT22;70785;52.570;5.638;2023-12-04T07:35:56;0.50;74.50
81321;DHT22;70785;52.570;5.638;2023-12-04T07:38:22;0.50;74.40
81321;DHT22;70785;52.570;5.638;2023-12-04T07:40:48;0.50;74.30
81321;DHT22;70785;52.570;5.638;2023-12-04T07:43:14;0.50;74.30
81321;DHT22;70785;52.570;5.638;2023-12-04T07:45:41;0.50;74.30
81321;DHT22;70785;52.570;5.638;2023-12-04T07:48:07;0.50;74.20
81321;DHT22;70785;52.570;5.638;2023-12-04T07:50:33;0.50;74.30
81321;DHT22;70785;52.570;5.638;2023-12-04T07:52:59;0.50;74.20
81321;DHT22;70785;52.570;5.638;2023-12-04T07:55:26;0.50;74.10
81321;DHT22;70785;52.570;5.638;2023-12-04T07:57:52;0.50;74.10
81321;DHT22;70785;52.570;5.638;2023-12-04T08:00:18;0.40;74.10
81321;DHT22;70785;52.570;5.638;2023-12-04T08:02:44;0.40;74.20
81321;DHT22;70785;52.570;5.638;2023-12-04T08:05:12;0.40;74.20
81321;DHT22;70785;52.570;5.638;2023-12-04T08:07:38;0.50;74.20
81321;DHT22;70785;52.570;5.638;2023-12-04T08:10:05;0.50;74.20
81321;DHT22;70785;52.570;5.638;2023-12-04T08:12:32;0.60;74.10
81321;DHT22;70785;52.570;5.638;2023-12-04T08:15:00;0.60;74.10
81321;DHT22;70785;52.570;5.638;2023-12-04T08:17:27;0.60;74.00
81321;DHT22;70785;52.570;5.638;2023-12-04T08:19:53;0.70;73.80
81321;DHT22;70785;52.570;5.638;2023-12-04T08:22:20;0.80;73.70
81321;DHT22;70785;52.570;5.638;2023-12-04T08:24:46;0.80;73.50
81321;DHT22;70785;52.570;5.638;2023-12-04T08:27:12;0.80;73.40
81321;DHT22;70785;52.570;5.638;2023-12-04T08:29:41;0.80;73.40
81321;DHT22;70785;52.570;5.638;2023-12-04T08:32:07;0.90;73.40
81321;DHT22;70785;52.570;5.638;2023-12-04T08:34:33;1.00;73.30
81321;DHT22;70785;52.570;5.638;2023-12-04T08:36:59;1.00;73.20
81321;DHT22;70785;52.570;5.638;2023-12-04T08:39:25;1.00;73.20
81321;DHT22;70785;52.570;5.638;2023-12-04T08:41:52;1.00;73.10
81321;DHT22;70785;52.570;5.638;2023-12-04T08:44:18;1.00;73.00
81321;DHT22;70785;52.570;5.638;2023-12-04T08:46:44;1.00;72.80
81321;DHT22;70785;52.570;5.638;2023-12-04T08:49:11;1.00;72.70
81321;DHT22;70785;52.570;5.638;2023-12-04T08:51:37;1.10;72.60
81321;DHT22;70785;52.570;5.638;2023-12-04T08:54:03;1.10;72.50
81321;DHT22;70785;52.570;5.638;2023-12-04T08:56:29;1.20;72.50
81321;DHT22;70785;52.570;5.638;2023-12-04T08:58:56;1.10;72.40
81321;DHT22;70785;52.570;5.638;2023-12-04T09:01:23;1.20;72.30
81321;DHT22;70785;52.570;5.638;2023-12-04T09:03:49;1.20;72.20
81321;DHT22;70785;52.570;5.638;2023-12-04T09:06:15;1.30;72.10
81321;DHT22;70785;52.570;5.638;2023-12-04T09:08:42;1.40;71.90
81321;DHT22;70785;52.570;5.638;2023-12-04T09:11:08;1.40;71.90
81321;DHT22;70785;52.570;5.638;2023-12-04T09:13:34;1.40;71.80
81321;DHT22;70785;52.570;5.638;2023-12-04T09:16:01;1.40;71.80
81321;DHT22;70785;52.570;5.638;2023-12-04T09:18:27;1.40;71.70
81321;DHT22;70785;52.570;5.638;2023-12-04T09:20:53;1.50;71.60
81321;DHT22;70785;52.570;5.638;2023-12-04T09:23:19;1.50;71.50
81321;DHT22;70785;52.570;5.638;2023-12-04T09:25:46;1.50;71.40
81321;DHT22;70785;52.570;5.638;2023-12-04T09:28:12;1.60;71.30
81321;DHT22;70785;52.570;5.638;2023-12-04T09:30:38;1.60;71.20
81321;DHT22;70785;52.570;5.638;2023-12-04T09:33:05;1.60;71.20
81321;DHT22;70785;52.570;5.638;2023-12-04T09:35:32;1.60;71.20
81321;DHT22;70785;52.570;5.638;2023-12-04T09:37:58;1.60;71.20
81321;DHT22;70785;52.570;5.638;2023-12-04T09:40:25;1.60;71.00
81321;DHT22;70785;52.570;5.638;2023-12-04T09:42:51;1.60;70.90
81321;DHT22;70785;52.570;5.638;2023-12-04T09:45:18;1.60;70.90
81321;DHT22;70785;52.570;5.638;2023-12-04T09:47:48;1.50;71.00
81321;DHT22;70785;52.570;5.638;2023-12-04T09:50:16;1.50;70.90
81321;DHT22;70785;52.570;5.638;2023-12-04T09:52:48;1.40;71.00
81321;DHT22;70785;52.570;5.638;2023-12-04T09:55:16;1.40;70.90
81321;DHT22;70785;52.570;5.638;2023-12-04T09:57:44;1.40;71.00
81321;DHT22;70785;52.570;5.638;2023-12-04T10:00:15;1.40;70.90
81321;DHT22;70785;52.570;5.638;2023-12-04T10:02:41;1.40;71.00
81321;DHT22;70785;52.570;5.638;2023-12-04T10:05:08;1.40;70.80
81321;DHT22;70785;52.570;5.638;2023-12-04T10:07:35;1.50;70.70
81321;DHT22;70785;52.570;5.638;2023-12-04T10:10:03;1.50;70.60
81321;DHT22;70785;52.570;5.638;2023-12-04T10:12:32;1.50;70.50
81321;DHT22;70785;52.570;5.638;2023-12-04T10:15:08;1.50;70.50
81321;DHT22;70785;52.570;5.638;2023-12-04T10:17:35;1.50;70.30
81321;DHT22;70785;52.570;5.638;2023-12-04T10:20:15;1.60;70.30
81321;DHT22;70785;52.570;5.638;2023-12-04T10:23:06;1.60;70.20
81321;DHT22;70785;52.570;5.638;2023-12-04T10:25:32;1.60;70.10
81321;DHT22;70785;52.570;5.638;2023-12-04T10:28:09;1.60;70.10
81321;DHT22;70785;52.570;5.638;2023-12-04T10:30:36;1.60;70.10
81321;DHT22;70785;52.570;5.638;2023-12-04T10:33:05;1.70;70.10
81321;DHT22;70785;52.570;5.638;2023-12-04T10:35:32;1.70;70.10
81321;DHT22;70785;52.570;5.638;2023-12-04T10:37:59;1.80;70.00
81321;DHT22;70785;52.570;5.638;2023-12-04T10:40:26;1.90;69.90
81321;DHT22;70785;52.570;5.638;2023-12-04T10:43:16;2.00;69.80
81321;DHT22;70785;52.570;5.638;2023-12-04T10:45:43;2.10;69.50
81321;DHT22;70785;52.570;5.638;2023-12-04T10:48:11;2.10;69.50
81321;DHT22;70785;52.570;5.638;2023-12-04T10:50:39;2.20;69.40
81321;DHT22;70785;52.570;5.638;2023-12-04T10:53:06;2.30;69.30
81321;DHT22;70785;52.570;5.638;2023-12-04T10:55:34;2.30;69.20
81321;DHT22;70785;52.570;5.638;2023-12-04T10:58:06;2.30;69.10
81321;DHT22;70785;52.570;5.638;2023-12-04T11:00:33;2.40;69.10
81321;DHT22;70785;52.570;5.638;2023-12-04T11:03:07;2.40;69.00
81321;DHT22;70785;52.570;5.638;2023-12-04T11:05:37;2.40;68.80
81321;DHT22;70785;52.570;5.638;2023-12-04T11:08:05;2.50;68.70
81321;DHT22;70785;52.570;5.638;2023-12-04T11:10:33;2.50;68.60
81321;DHT22;70785;52.570;5.638;2023-12-04T11:13:06;2.50;68.60
81321;DHT22;70785;52.570;5.638;2023-12-04T11:15:40;2.50;68.50
81321;DHT22;70785;52.570;5.638;2023-12-04T11:18:12;2.50;68.50
81321;DHT22;70785;52.570;5.638;2023-12-04T11:20:48;2.50;68.60
81321;DHT22;70785;52.570;5.638;2023-12-04T11:23:16;2.50;68.50
81321;DHT22;70785;52.570;5.638;2023-12-04T11:25:44;2.50;68.40
81321;DHT22;70785;52.570;5.638;2023-12-04T11:28:10;2.50;68.40
81321;DHT22;70785;52.570;5.638;2023-12-04T11:30:37;2.50;68.40
81321;DHT22;70785;52.570;5.638;2023-12-04T11:33:05;2.50;68.40
81321;DHT22;70785;52.570;5.638;2023-12-04T11:35:33;2.50;68.30
81321;DHT22;70785;52.570;5.638;2023-12-04T11:38:00;2.50;68.40
81321;DHT22;70785;52.570;5.638;2023-12-04T11:40:27;2.50;68.40
81321;DHT22;70785;52.570;5.638;2023-12-04T11:42:53;2.50;68.30
81321;DHT22;70785;52.570;5.638;2023-12-04T11:45:20;2.50;68.30
81321;DHT22;70785;52.570;5.638;2023-12-04T11:47:56;2.50;68.20
81321;DHT22;70785;52.570;5.638;2023-12-04T11:50:24;2.50;68.20
81321;DHT22;70785;52.570;5.638;2023-12-04T11:52:51;2.50;68.20
81321;DHT22;70785;52.570;5.638;2023-12-04T11:55:20;2.50;68.20
81321;DHT22;70785;52.570;5.638;2023-12-04T11:57:50;2.50;68.20
81321;DHT22;70785;52.570;5.638;2023-12-04T12:02:48;2.50;68.10
81321;DHT22;70785;52.570;5.638;2023-12-04T12:05:15;2.50;68.00
81321;DHT22;70785;52.570;5.638;2023-12-04T12:07:42;2.50;68.00
81321;DHT22;70785;52.570;5.638;2023-12-04T12:10:09;2.60;68.00
81321;DHT22;70785;52.570;5.638;2023-12-04T12:12:36;2.60;68.00
81321;DHT22;70785;52.570;5.638;2023-12-04T12:15:03;2.70;68.00
81321;DHT22;70785;52.570;5.638;2023-12-04T12:17:30;2.70;67.90
81321;DHT22;70785;52.570;5.638;2023-12-04T12:19:56;2.70;67.80
81321;DHT22;70785;52.570;5.638;2023-12-04T12:22:23;2.80;67.70
81321;DHT22;70785;52.570;5.638;2023-12-04T12:24:50;2.70;67.70
81321;DHT22;70785;52.570;5.638;2023-12-04T12:27:16;2.70;67.70
81321;DHT22;70785;52.570;5.638;2023-12-04T12:29:42;2.80;67.70
81321;DHT22;70785;52.570;5.638;2023-12-04T12:32:08;2.80;67.70
81321;DHT22;70785;52.570;5.638;2023-12-04T12:34:35;2.80;67.60
81321;DHT22;70785;52.570;5.638;2023-12-04T12:37:04;2.70;67.70
81321;DHT22;70785;52.570;5.638;2023-12-04T12:39:32;2.70;67.70
81321;DHT22;70785;52.570;5.638;2023-12-04T12:41:58;2.70;67.70
81321;DHT22;70785;52.570;5.638;2023-12-04T12:44:26;2.70;67.70
81321;DHT22;70785;52.570;5.638;2023-12-04T12:46:53;2.70;67.70
81321;DHT22;70785;52.570;5.638;2023-12-04T12:49:20;2.60;67.70
81321;DHT22;70785;52.570;5.638;2023-12-04T12:51:49;2.50;67.80
81321;DHT22;70785;52.570;5.638;2023-12-04T12:54:15;2.50;67.80
81321;DHT22;70785;52.570;5.638;2023-12-04T12:56:41;2.50;67.90
81321;DHT22;70785;52.570;5.638;2023-12-04T12:59:07;2.50;67.90
81321;DHT22;70785;52.570;5.638;2023-12-04T13:01:33;2.50;67.80
81321;DHT22;70785;52.570;5.638;2023-12-04T13:04:00;2.50;67.80
81321;DHT22;70785;52.570;5.638;2023-12-04T13:06:26;2.50;67.80
81321;DHT22;70785;52.570;5.638;2023-12-04T13:08:52;2.50;67.80
81321;DHT22;70785;52.570;5.638;2023-12-04T13:11:18;2.40;67.70
81321;DHT22;70785;52.570;5.638;2023-12-04T13:13:45;2.40;67.80
81321;DHT22;70785;52.570;5.638;2023-12-04T13:16:11;2.40;67.80
81321;DHT22;70785;52.570;5.638;2023-12-04T13:18:37;2.40;67.80
81321;DHT22;70785;52.570;5.638;2023-12-04T13:21:04;2.50;67.80
81321;DHT22;70785;52.570;5.638;2023-12-04T13:23:31;2.50;67.70
81321;DHT22;70785;52.570;5.638;2023-12-04T13:25:57;2.50;67.70
81321;DHT22;70785;52.570;5.638;2023-12-04T13:28:23;2.50;67.70
81321;DHT22;70785;52.570;5.638;2023-12-04T13:30:49;2.60;67.70
81321;DHT22;70785;52.570;5.638;2023-12-04T13:33:15;2.70;67.60
81321;DHT22;70785;52.570;5.638;2023-12-04T13:35:41;2.70;67.60
81321;DHT22;70785;52.570;5.638;2023-12-04T13:38:07;2.80;67.40
81321;DHT22;70785;52.570;5.638;2023-12-04T13:40:42;2.80;67.30
81321;DHT22;70785;52.570;5.638;2023-12-04T13:43:15;2.80;67.20
81321;DHT22;70785;52.570;5.638;2023-12-04T13:45:59;2.80;67.10
81321;DHT22;70785;52.570;5.638;2023-12-04T13:48:26;2.80;67.10
81321;DHT22;70785;52.570;5.638;2023-12-04T13:50:52;2.80;67.10
81321;DHT22;70785;52.570;5.638;2023-12-04T13:53:18;2.70;67.10
81321;DHT22;70785;52.570;5.638;2023-12-04T13:55:51;2.60;67.20
81321;DHT22;70785;52.570;5.638;2023-12-04T13:58:20;2.50;67.20
81321;DHT22;70785;52.570;5.638;2023-12-04T14:01:08;2.50;67.40
81321;DHT22;70785;52.570;5.638;2023-12-04T14:03:43;2.50;67.40
81321;DHT22;70785;52.570;5.638;2023-12-04T14:06:10;2.50;67.50
81321;DHT22;70785;52.570;5.638;2023-12-04T14:08:37;2.50;67.50
81321;DHT22;70785;52.570;5.638;2023-12-04T14:11:04;2.50;67.50
81321;DHT22;70785;52.570;5.638;2023-12-04T14:13:32;2.50;67.50
81321;DHT22;70785;52.570;5.638;2023-12-04T14:15:58;2.50;67.40
81321;DHT22;70785;52.570;5.638;2023-12-04T14:18:24;2.50;67.40
81321;DHT22;70785;52.570;5.638;2023-12-04T14:20:52;2.50;67.40
81321;DHT22;70785;52.570;5.638;2023-12-04T14:23:18;2.50;67.50
81321;DHT22;70785;52.570;5.638;2023-12-04T14:25:45;2.50;67.40
81321;DHT22;70785;52.570;5.638;2023-12-04T14:28:11;2.50;67.50
81321;DHT22;70785;52.570;5.638;2023-12-04T14:30:37;2.40;67.40
81321;DHT22;70785;52.570;5.638;2023-12-04T14:33:04;2.40;67.60
81321;DHT22;70785;52.570;5.638;2023-12-04T14:35:30;2.30;67.60
81321;DHT22;70785;52.570;5.638;2023-12-04T14:37:56;2.30;67.80
81321;DHT22;70785;52.570;5.638;2023-12-04T14:40:22;2.30;67.70
81321;DHT22;70785;52.570;5.638;2023-12-04T14:42:49;2.30;67.80
81321;DHT22;70785;52.570;5.638;2023-12-04T14:45:15;2.30;67.80
81321;DHT22;70785;52.570;5.638;2023-12-04T14:47:44;2.30;67.90
81321;DHT22;70785;52.570;5.638;2023-12-04T14:50:10;2.30;67.90
81321;DHT22;70785;52.570;5.638;2023-12-04T14:52:36;2.30;68.00
81321;DHT22;70785;52.570;5.638;2023-12-04T14:55:10;2.30;68.10
81321;DHT22;70785;52.570;5.638;2023-12-04T14:57:52;2.20;68.10
81321;DHT22;70785;52.570;5.638;2023-12-04T15:00:40;2.20;68.20
81321;DHT22;70785;52.570;5.638;2023-12-04T15:03:25;2.20;68.10
81321;DHT22;70785;52.570;5.638;2023-12-04T15:05:54;2.20;68.10
81321;DHT22;70785;52.570;5.638;2023-12-04T15:08:38;2.20;68.10
81321;DHT22;70785;52.570;5.638;2023-12-04T15:11:13;2.20;68.20
81321;DHT22;70785;52.570;5.638;2023-12-04T15:13:58;2.10;68.20
81321;DHT22;70785;52.570;5.638;2023-12-04T15:16:43;2.10;68.20
81321;DHT22;70785;52.570;5.638;2023-12-04T15:19:17;2.00;68.30
81321;DHT22;70785;52.570;5.638;2023-12-04T15:22:09;2.00;68.30
81321;DHT22;70785;52.570;5.638;2023-12-04T15:24:35;1.90;68.30
81321;DHT22;70785;52.570;5.638;2023-12-04T15:27:03;1.90;68.40
81321;DHT22;70785;52.570;5.638;2023-12-04T15:29:29;1.80;68.50
81321;DHT22;70785;52.570;5.638;2023-12-04T15:31:56;1.70;68.60
81321;DHT22;70785;52.570;5.638;2023-12-04T15:34:22;1.70;68.70
81321;DHT22;70785;52.570;5.638;2023-12-04T15:36:48;1.60;68.80
81321;DHT22;70785;52.570;5.638;2023-12-04T15:39:15;1.60;68.90
81321;DHT22;70785;52.570;5.638;2023-12-04T15:41:44;1.50;68.90
81321;DHT22;70785;52.570;5.638;2023-12-04T15:44:10;1.40;69.00
81321;DHT22;70785;52.570;5.638;2023-12-04T15:46:37;1.30;69.10
81321;DHT22;70785;52.570;5.638;2023-12-04T15:49:03;1.20;69.20